createdAt,value
2024-01-24T00:00:42.356Z,97390.75
2024-01-24T00:03:09.830Z,97392.91
2024-01-24T00:05:36.844Z,97386.34
2024-01-24T00:08:04.078Z,97397.38
2024-01-24T00:10:30.941Z,97402.81
2024-01-24T00:12:58.000Z,97398.34
2024-01-24T00:15:25.005Z,97414.75
2024-01-24T00:17:52.068Z,97422.59
2024-01-24T00:20:19.149Z,97419.22
2024-01-24T00:22:46.047Z,97381.41
2024-01-24T00:25:13.104Z,97370.84
2024-01-24T00:27:40.271Z,97380.91
2024-01-24T00:30:08.622Z,97371.03
2024-01-24T00:32:35.594Z,97361.72
2024-01-24T00:35:02.529Z,97356.25
2024-01-24T00:37:29.398Z,97353.78
2024-01-24T00:39:56.376Z,97364.44
2024-01-24T00:42:23.291Z,97347.22
2024-01-24T00:44:52.027Z,97342.81
2024-01-24T00:47:20.211Z,97335.78
2024-01-24T00:49:47.280Z,97327.78
2024-01-24T00:52:14.879Z,97348.06
2024-01-24T00:54:41.903Z,97337.63
2024-01-24T00:57:08.916Z,97333.38
2024-01-24T00:59:35.841Z,97333.84
2024-01-24T01:02:03.770Z,97335.31
2024-01-24T01:04:30.771Z,97336.97
2024-01-24T01:06:57.664Z,97347.44
2024-01-24T01:09:24.585Z,97346.16
2024-01-24T01:11:51.528Z,97330.34
2024-01-24T01:14:18.424Z,97312.84
2024-01-24T01:16:45.322Z,97306.69
2024-01-24T01:19:12.371Z,97310.66
2024-01-24T01:21:41.496Z,97306.94
2024-01-24T01:24:10.502Z,97311.66
2024-01-24T01:26:37.605Z,97319.25
2024-01-24T01:29:04.914Z,97315.47
2024-01-24T01:31:31.796Z,97314.81
2024-01-24T01:33:58.918Z,97320.09
2024-01-24T01:36:26.031Z,97323.38
2024-01-24T01:38:53.079Z,97297.50
2024-01-24T01:41:20.149Z,97285.72
2024-01-24T01:43:47.103Z,97292.13
2024-01-24T01:46:22.830Z,97288.06
2024-01-24T01:48:51.636Z,97281.50
2024-01-24T01:51:20.758Z,97262.84
2024-01-24T01:53:49.722Z,97260.91
2024-01-24T01:56:21.431Z,97253.84
2024-01-24T01:58:49.998Z,97243.84
2024-01-24T02:01:17.936Z,97235.28
2024-01-24T02:03:46.946Z,97236.59
2024-01-24T02:06:14.403Z,97237.94
2024-01-24T02:08:41.449Z,97246.69
2024-01-24T02:11:08.417Z,97228.66
2024-01-24T02:13:35.381Z,97214.44
2024-01-24T02:16:04.737Z,97215.69
2024-01-24T02:18:32.072Z,97219.03
2024-01-24T02:20:59.245Z,97216.97
2024-01-24T02:23:27.746Z,97223.50
2024-01-24T02:25:55.079Z,97224.53
2024-01-24T02:28:22.080Z,97206.28
2024-01-24T02:30:49.233Z,97206.72
2024-01-24T02:33:16.875Z,97201.59
2024-01-24T02:35:43.972Z,97202.72
2024-01-24T02:38:10.921Z,97191.88
2024-01-24T02:40:37.901Z,97185.03
2024-01-24T02:43:05.315Z,97192.19
2024-01-24T02:45:33.028Z,97194.50
2024-01-24T02:48:00.075Z,97187.50
2024-01-24T02:50:27.131Z,97170.59
2024-01-24T02:52:54.030Z,97170.81
2024-01-24T02:55:20.894Z,97179.31
2024-01-24T02:57:48.489Z,97184.00
2024-01-24T03:00:16.962Z,97174.66
2024-01-24T03:02:44.135Z,97165.31
2024-01-24T03:05:11.115Z,97166.25
2024-01-24T03:07:39.010Z,97179.25
2024-01-24T03:10:07.201Z,97173.84
2024-01-24T03:12:34.710Z,97168.22
2024-01-24T03:15:01.665Z,97159.34
2024-01-24T03:17:28.572Z,97157.25
2024-01-24T03:19:56.150Z,97156.97
2024-01-24T03:22:26.136Z,97149.63
2024-01-24T03:24:53.730Z,97145.34
2024-01-24T03:27:20.829Z,97134.53
2024-01-24T03:29:47.775Z,97134.91
2024-01-24T03:32:14.662Z,97130.78
2024-01-24T03:34:41.563Z,97131.56
2024-01-24T03:37:08.512Z,97137.53
2024-01-24T03:39:37.219Z,97132.66
2024-01-24T03:42:04.962Z,97147.19
2024-01-24T03:44:32.004Z,97155.31
2024-01-24T03:46:59.159Z,97150.72
2024-01-24T03:49:26.210Z,97156.06
2024-01-24T03:51:54.230Z,97152.63
2024-01-24T03:54:21.280Z,97161.19
2024-01-24T03:56:48.347Z,97153.00
2024-01-24T03:59:15.552Z,97154.69
2024-01-24T04:01:43.622Z,97155.81
2024-01-24T04:04:10.725Z,97141.28
2024-01-24T04:06:37.873Z,97147.25
2024-01-24T04:09:04.970Z,97140.38
2024-01-24T04:11:31.846Z,97145.53
2024-01-24T04:13:58.997Z,97146.44
2024-01-24T04:16:25.886Z,97136.19
2024-01-24T04:18:53.661Z,97129.03
2024-01-24T04:21:20.632Z,97141.34
2024-01-24T04:23:47.764Z,97147.72
2024-01-24T04:26:14.758Z,97144.38
2024-01-24T04:28:41.675Z,97146.34
2024-01-24T04:31:08.641Z,97141.19
2024-01-24T04:33:36.032Z,97136.38
2024-01-24T04:36:03.147Z,97147.16
2024-01-24T04:38:30.044Z,97140.47
2024-01-24T04:40:56.884Z,97141.19
2024-01-24T04:43:23.776Z,97132.84
2024-01-24T04:45:50.700Z,97130.84
2024-01-24T04:48:17.811Z,97142.09
2024-01-24T04:50:45.009Z,97134.75
2024-01-24T04:53:11.966Z,97126.84
2024-01-24T04:55:38.809Z,97135.25
2024-01-24T04:58:05.811Z,97134.06
2024-01-24T05:00:32.851Z,97132.63
2024-01-24T05:02:59.840Z,97136.72
2024-01-24T05:05:26.948Z,97140.47
2024-01-24T05:07:53.809Z,97142.59
2024-01-24T05:10:20.879Z,97142.25
2024-01-24T05:12:47.868Z,97157.00
2024-01-24T05:15:14.832Z,97155.81
2024-01-24T05:17:41.972Z,97147.66
2024-01-24T05:20:09.940Z,97145.47
2024-01-24T05:22:36.939Z,97152.38
2024-01-24T05:25:04.151Z,97146.22
2024-01-24T05:27:31.176Z,97143.09
2024-01-24T05:29:58.101Z,97146.34
2024-01-24T05:32:25.011Z,97136.09
2024-01-24T05:34:52.063Z,97136.81
2024-01-24T05:37:18.953Z,97130.13
2024-01-24T05:39:46.038Z,97120.84
2024-01-24T05:42:13.018Z,97130.38
2024-01-24T05:44:39.935Z,97132.50
2024-01-24T05:47:06.996Z,97145.81
2024-01-24T05:49:39.867Z,97139.09
2024-01-24T05:52:07.433Z,97124.50
2024-01-24T05:54:34.995Z,97134.44
2024-01-24T05:57:01.925Z,97136.63
2024-01-24T05:59:28.848Z,97124.19
2024-01-24T06:01:56.400Z,97126.19
2024-01-24T06:04:23.379Z,97138.25
2024-01-24T06:06:50.431Z,97140.22
2024-01-24T06:09:21.664Z,97128.31
2024-01-24T06:11:49.936Z,97140.94
2024-01-24T06:14:16.997Z,97138.06
2024-01-24T06:16:43.986Z,97132.09
2024-01-24T06:19:11.024Z,97131.44
2024-01-24T06:21:38.160Z,97137.25
2024-01-24T06:24:07.787Z,97141.63
2024-01-24T06:26:34.814Z,97138.09
2024-01-24T06:29:03.052Z,97139.25
2024-01-24T06:31:29.984Z,97148.28
2024-01-24T06:33:57.007Z,97135.88
2024-01-24T06:36:23.986Z,97139.72
2024-01-24T06:38:50.924Z,97130.72
2024-01-24T06:41:17.848Z,97123.28
2024-01-24T06:43:44.751Z,97140.59
2024-01-24T06:46:12.503Z,97128.69
2024-01-24T06:48:39.840Z,97128.72
2024-01-24T06:51:07.370Z,97130.88
2024-01-24T06:53:34.322Z,97132.84
2024-01-24T06:56:01.271Z,97126.78
2024-01-24T06:58:28.221Z,97115.78
2024-01-24T07:00:57.185Z,97115.47
2024-01-24T07:03:24.333Z,97140.81
2024-01-24T07:05:52.648Z,97150.09
2024-01-24T07:08:19.805Z,97130.75
2024-01-24T07:10:46.700Z,97125.31
2024-01-24T07:13:13.641Z,97124.38
2024-01-24T07:15:40.988Z,97142.63
2024-01-24T07:18:08.272Z,97142.56
2024-01-24T07:20:35.214Z,97131.63
2024-01-24T07:23:03.085Z,97150.88
2024-01-24T07:25:30.276Z,97156.03
2024-01-24T07:27:57.203Z,97176.56
2024-01-24T07:30:24.420Z,97176.16
2024-01-24T07:32:51.550Z,97173.63
2024-01-24T07:35:18.530Z,97154.03
2024-01-24T07:37:45.909Z,97121.03
2024-01-24T07:40:15.462Z,97109.53
2024-01-24T07:42:43.828Z,97115.75
2024-01-24T07:45:11.000Z,97123.03
2024-01-24T07:47:38.405Z,97105.63
2024-01-24T07:50:07.999Z,97114.03
2024-01-24T07:52:40.892Z,97106.22
2024-01-24T07:55:11.810Z,97103.84
2024-01-24T07:57:39.332Z,97114.59
2024-01-24T08:00:07.423Z,97125.44
2024-01-24T08:02:35.067Z,97120.63
2024-01-24T08:05:02.293Z,97114.16
2024-01-24T08:07:31.498Z,97107.34
2024-01-24T08:09:58.591Z,97090.78
2024-01-24T08:12:25.712Z,97092.44
2024-01-24T08:14:52.741Z,97102.00
2024-01-24T08:17:20.419Z,97099.41
2024-01-24T08:19:47.397Z,97106.56
2024-01-24T08:22:15.298Z,97095.34
2024-01-24T08:24:42.493Z,97085.34
2024-01-24T08:27:09.501Z,97105.94
2024-01-24T08:29:37.946Z,97097.81
2024-01-24T08:32:06.908Z,97093.84
2024-01-24T08:34:36.959Z,97088.28
2024-01-24T08:37:05.214Z,97084.69
2024-01-24T08:39:33.486Z,97082.19
2024-01-24T08:42:00.361Z,97073.19
2024-01-24T08:44:28.279Z,97065.75
2024-01-24T08:46:55.138Z,97050.16
2024-01-24T08:49:22.262Z,97060.19
2024-01-24T08:51:49.437Z,97064.56
2024-01-24T08:54:17.327Z,97055.03
2024-01-24T08:56:44.583Z,97054.44
2024-01-24T08:59:11.521Z,97071.16
2024-01-24T09:01:38.518Z,97059.44
2024-01-24T09:04:06.368Z,97072.53
2024-01-24T09:06:33.541Z,97067.44
2024-01-24T09:09:00.822Z,97079.91
2024-01-24T09:11:32.017Z,97076.84
2024-01-24T09:14:05.118Z,97081.47
2024-01-24T09:16:32.249Z,97088.47
2024-01-24T09:18:59.521Z,97075.78
2024-01-24T09:21:26.948Z,97087.16
2024-01-24T09:23:53.934Z,97079.50
2024-01-24T09:26:21.046Z,97067.66
2024-01-24T09:28:48.009Z,97064.50
2024-01-24T09:31:15.945Z,97071.81
2024-01-24T09:33:43.100Z,97072.63
2024-01-24T09:36:11.072Z,97063.69
2024-01-24T09:38:38.000Z,97048.22
2024-01-24T09:41:15.158Z,97064.50
2024-01-24T09:43:42.641Z,97060.81
2024-01-24T09:46:14.624Z,97059.59
2024-01-24T09:48:44.440Z,97068.16
2024-01-24T09:51:11.513Z,97074.66
2024-01-24T09:53:40.889Z,97067.91
2024-01-24T09:56:08.049Z,97095.44
2024-01-24T09:58:35.043Z,97094.97
2024-01-24T10:01:06.293Z,97101.94
2024-01-24T10:03:37.653Z,97103.94
2024-01-24T10:06:10.487Z,97105.22
2024-01-24T10:08:37.469Z,97104.78
2024-01-24T10:11:04.703Z,97108.00
2024-01-24T10:13:32.481Z,97094.63
2024-01-24T10:16:01.144Z,97111.72
2024-01-24T10:18:28.343Z,97097.84
2024-01-24T10:20:55.883Z,97105.56
2024-01-24T10:23:23.098Z,97102.72
2024-01-24T10:25:50.244Z,97098.66
2024-01-24T10:28:18.336Z,97080.25
2024-01-24T10:30:48.852Z,97064.97
2024-01-24T10:33:19.315Z,97083.00
2024-01-24T10:35:46.946Z,97062.53
2024-01-24T10:38:19.356Z,97069.16
2024-01-24T10:40:46.682Z,97068.13
2024-01-24T10:43:15.337Z,97072.53
2024-01-24T10:45:45.529Z,97075.56
2024-01-24T10:48:13.051Z,97068.88
2024-01-24T10:50:41.093Z,97067.31
2024-01-24T10:53:10.948Z,97054.13
2024-01-24T10:55:38.667Z,97050.25
2024-01-24T10:58:12.254Z,97062.69
2024-01-24T11:00:40.810Z,97058.53
2024-01-24T11:03:09.036Z,97113.63
2024-01-24T11:05:45.009Z,97057.09
2024-01-24T11:08:43.676Z,97045.47
2024-01-24T11:11:18.689Z,97027.88
2024-01-24T11:13:47.287Z,97029.97
2024-01-24T11:16:38.436Z,97026.22
2024-01-24T11:19:23.464Z,97024.94
2024-01-24T11:21:52.294Z,97039.38
2024-01-24T11:24:41.297Z,97032.44
2024-01-24T11:27:35.367Z,97019.56
2024-01-24T11:30:24.496Z,97037.56
2024-01-24T11:33:01.368Z,97023.63
2024-01-24T11:35:42.615Z,97047.53
2024-01-24T11:38:26.029Z,97010.59
2024-01-24T11:41:02.453Z,97003.84
2024-01-24T11:43:37.762Z,96963.72
2024-01-24T11:46:09.358Z,96991.97
2024-01-24T11:48:38.282Z,97007.53
2024-01-24T11:51:12.292Z,97002.25
2024-01-24T11:53:39.273Z,97017.09
2024-01-24T11:56:09.059Z,97007.59
2024-01-24T11:58:36.371Z,97005.34
2024-01-24T12:01:04.924Z,97009.66
2024-01-24T12:03:32.764Z,97015.78
2024-01-24T12:06:00.780Z,97022.84
2024-01-24T12:08:28.749Z,97022.19
2024-01-24T12:10:55.772Z,97000.69
2024-01-24T12:13:25.342Z,97010.88
2024-01-24T12:15:54.690Z,96989.66
2024-01-24T12:18:22.253Z,96998.19
2024-01-24T12:20:54.393Z,96997.66
2024-01-24T12:23:23.178Z,96998.31
2024-01-24T12:25:51.081Z,96982.13
2024-01-24T12:28:22.832Z,97009.19
2024-01-24T12:30:52.702Z,96999.13
2024-01-24T12:33:20.552Z,97017.84
2024-01-24T12:35:48.966Z,97010.53
2024-01-24T12:38:17.343Z,97009.84
2024-01-24T12:40:53.466Z,97004.06
2024-01-24T12:43:23.009Z,97012.59
2024-01-24T12:45:50.705Z,97010.13
2024-01-24T12:48:19.797Z,97021.59
2024-01-24T12:50:50.505Z,97029.75
2024-01-24T12:53:17.824Z,97022.41
2024-01-24T12:55:44.991Z,97031.63
2024-01-24T12:58:12.129Z,97030.25
2024-01-24T13:00:39.430Z,97011.16
2024-01-24T13:03:06.890Z,97009.53
2024-01-24T13:05:42.372Z,97010.31
2024-01-24T13:08:14.295Z,97000.81
2024-01-24T13:10:46.478Z,97004.47
2024-01-24T13:13:14.743Z,96996.56
2024-01-24T13:15:42.480Z,97004.91
2024-01-24T13:18:10.865Z,96997.97
2024-01-24T13:20:37.825Z,97006.03
2024-01-24T13:23:05.051Z,97007.81
2024-01-24T13:25:32.094Z,97007.66
2024-01-24T13:28:00.188Z,97027.97
2024-01-24T13:30:28.018Z,97044.63
2024-01-24T13:32:55.925Z,97042.00
2024-01-24T13:35:22.982Z,97052.03
2024-01-24T13:37:50.633Z,97053.69
2024-01-24T13:40:18.490Z,97039.44
2024-01-24T13:42:45.961Z,97042.91
2024-01-24T13:45:13.085Z,97032.53
2024-01-24T13:47:40.164Z,97020.13
2024-01-24T13:50:07.876Z,97030.25
2024-01-24T13:52:35.047Z,97035.16
2024-01-24T13:55:02.474Z,97026.59
2024-01-24T13:57:29.690Z,97042.06
2024-01-24T13:59:56.831Z,97046.56
2024-01-24T14:02:24.004Z,97046.50
2024-01-24T14:04:51.454Z,97046.53
2024-01-24T14:07:18.972Z,97053.81
2024-01-24T14:09:46.232Z,97054.56
2024-01-24T14:12:13.339Z,97045.25
2024-01-24T14:14:40.275Z,97070.88
2024-01-24T14:17:07.215Z,97062.81
2024-01-24T14:19:34.550Z,97080.09
2024-01-24T14:22:01.821Z,97079.78
2024-01-24T14:24:29.290Z,97098.16
2024-01-24T14:26:56.331Z,97103.34
2024-01-24T14:29:24.427Z,97112.97
2024-01-24T14:31:51.531Z,97105.44
2024-01-24T14:34:18.893Z,97105.06
2024-01-24T14:36:52.116Z,97105.03
2024-01-24T14:39:22.951Z,97114.16
2024-01-24T14:41:50.224Z,97120.66
2024-01-24T14:44:18.363Z,97123.28
2024-01-24T14:46:45.238Z,97123.19
2024-01-24T14:49:12.495Z,97130.03
2024-01-24T14:51:39.648Z,97126.81
2024-01-24T14:54:06.692Z,97128.81
2024-01-24T14:56:33.732Z,97134.19
2024-01-24T14:59:00.742Z,97140.44
2024-01-24T15:01:28.268Z,97135.28
2024-01-24T15:03:56.461Z,97141.59
2024-01-24T15:06:23.508Z,97144.66
2024-01-24T15:08:50.603Z,97151.44
2024-01-24T15:11:18.122Z,97151.25
2024-01-24T15:13:45.086Z,97166.16
2024-01-24T15:16:12.148Z,97156.41
2024-01-24T15:18:39.709Z,97162.66
2024-01-24T15:21:09.120Z,97158.69
2024-01-24T15:23:40.275Z,97170.97
2024-01-24T15:26:08.688Z,97163.31
2024-01-24T15:28:39.260Z,97170.06
2024-01-24T15:31:07.520Z,97175.78
2024-01-24T15:33:35.328Z,97178.03
2024-01-24T15:36:02.543Z,97168.63
2024-01-24T15:38:29.534Z,97184.72
2024-01-24T15:40:57.234Z,97169.75
2024-01-24T15:43:24.319Z,97184.59
2024-01-24T15:45:51.638Z,97181.59
2024-01-24T15:48:19.077Z,97195.31
2024-01-24T15:50:46.113Z,97193.25
2024-01-24T15:53:13.749Z,97190.34
2024-01-24T15:55:40.634Z,97188.97
2024-01-24T15:58:07.699Z,97218.47
2024-01-24T16:00:35.166Z,97222.50
2024-01-24T16:03:04.572Z,97229.38
2024-01-24T16:05:43.064Z,97225.09
2024-01-24T16:08:11.920Z,97226.88
2024-01-24T16:10:40.050Z,97245.81
2024-01-24T16:13:08.176Z,97241.06
2024-01-24T16:15:35.693Z,97230.34
2024-01-24T16:18:04.769Z,97235.03
2024-01-24T16:20:31.683Z,97246.31
2024-01-24T16:22:58.607Z,97247.56
2024-01-24T16:25:26.485Z,97242.72
2024-01-24T16:27:55.036Z,97262.31
2024-01-24T16:30:26.532Z,97257.69
2024-01-24T16:32:56.970Z,97267.09
2024-01-24T16:35:24.905Z,97258.75
2024-01-24T16:37:52.969Z,97262.44
2024-01-24T16:40:20.014Z,97265.97
2024-01-24T16:42:47.246Z,97255.28
2024-01-24T16:45:15.737Z,97267.97
2024-01-24T16:47:44.291Z,97280.03
2024-01-24T16:50:12.097Z,97281.53
2024-01-24T16:52:39.383Z,97294.16
2024-01-24T16:55:07.183Z,97292.84
2024-01-24T16:57:34.986Z,97309.56
2024-01-24T17:00:02.927Z,97318.13
2024-01-24T17:02:38.100Z,97311.78
2024-01-24T17:05:11.419Z,97315.75
2024-01-24T17:07:38.466Z,97318.47
2024-01-24T17:10:06.815Z,97332.25
2024-01-24T17:12:34.230Z,97336.66
2024-01-24T17:15:01.506Z,97338.72
2024-01-24T17:17:28.533Z,97344.56
2024-01-24T17:19:55.713Z,97354.25
2024-01-24T17:22:23.294Z,97331.66
2024-01-24T17:24:50.685Z,97334.16
2024-01-24T17:27:18.203Z,97338.06
2024-01-24T17:29:46.664Z,97348.59
2024-01-24T17:32:13.744Z,97341.47
2024-01-24T17:34:43.276Z,97342.03
2024-01-24T17:37:11.211Z,97345.47
2024-01-24T17:39:38.421Z,97361.38
2024-01-24T17:42:05.766Z,97363.41
2024-01-24T17:44:34.184Z,97365.28
2024-01-24T17:47:01.285Z,97369.28
2024-01-24T17:49:28.473Z,97357.22
2024-01-24T17:51:57.860Z,97354.63
2024-01-24T17:54:25.376Z,97360.34
2024-01-24T17:56:52.802Z,97380.47
2024-01-24T17:59:20.137Z,97380.84
2024-01-24T18:01:47.694Z,97379.78
2024-01-24T18:04:15.013Z,97367.59
2024-01-24T18:06:42.509Z,97372.91
2024-01-24T18:09:09.629Z,97379.84
2024-01-24T18:11:37.486Z,97372.25
2024-01-24T18:14:04.590Z,97369.59
2024-01-24T18:16:31.813Z,97374.16
2024-01-24T18:18:58.987Z,97373.13
2024-01-24T18:21:29.825Z,97385.50
2024-01-24T18:23:56.912Z,97398.59
2024-01-24T18:26:23.842Z,97384.78
2024-01-24T18:28:51.648Z,97382.69
2024-01-24T18:31:19.003Z,97390.03
2024-01-24T18:33:46.254Z,97387.72
2024-01-24T18:36:13.581Z,97393.84
2024-01-24T18:38:41.441Z,97398.72
2024-01-24T18:41:08.553Z,97403.16
2024-01-24T18:43:35.421Z,97404.34
2024-01-24T18:46:02.998Z,97398.59
2024-01-24T18:48:30.593Z,97391.28
2024-01-24T18:50:57.755Z,97404.50
2024-01-24T18:53:24.751Z,97411.41
2024-01-24T18:55:52.739Z,97410.06
2024-01-24T18:58:21.347Z,97418.38
2024-01-24T19:00:48.844Z,97423.63
2024-01-24T19:03:16.237Z,97411.34
2024-01-24T19:05:43.474Z,97424.88
2024-01-24T19:08:11.962Z,97427.22
2024-01-24T19:10:39.211Z,97438.69
2024-01-24T19:13:06.392Z,97432.75
2024-01-24T19:15:33.555Z,97435.44
2024-01-24T19:18:07.582Z,97443.59
2024-01-24T19:20:40.811Z,97439.03
2024-01-24T19:23:07.762Z,97451.06
2024-01-24T19:25:34.675Z,97442.97
2024-01-24T19:28:01.704Z,97435.81
2024-01-24T19:30:29.076Z,97429.50
2024-01-24T19:32:56.394Z,97433.59
2024-01-24T19:35:23.485Z,97444.13
2024-01-24T19:37:50.475Z,97447.66
2024-01-24T19:40:17.530Z,97453.16
2024-01-24T19:42:44.682Z,97456.72
2024-01-24T19:45:13.124Z,97455.09
2024-01-24T19:47:41.016Z,97451.84
2024-01-24T19:50:11.185Z,97452.50
2024-01-24T19:52:39.727Z,97450.50
2024-01-24T19:55:08.696Z,97449.28
2024-01-24T19:57:36.358Z,97458.09
2024-01-24T20:00:04.874Z,97467.66
2024-01-24T20:02:33.315Z,97458.59
2024-01-24T20:05:01.297Z,97465.44
2024-01-24T20:07:28.274Z,97458.25
2024-01-24T20:09:55.314Z,97456.88
2024-01-24T20:12:22.889Z,97447.38
2024-01-24T20:14:50.681Z,97465.41
2024-01-24T20:17:18.569Z,97476.66
2024-01-24T20:19:50.088Z,97477.69
2024-01-24T20:22:18.051Z,97478.28
2024-01-24T20:24:45.641Z,97470.28
2024-01-24T20:27:12.759Z,97473.56
2024-01-24T20:29:39.666Z,97469.56
2024-01-24T20:32:06.992Z,97482.25
2024-01-24T20:34:34.110Z,97483.81
2024-01-24T20:37:02.768Z,97485.97
2024-01-24T20:39:30.038Z,97496.38
2024-01-24T20:41:57.033Z,97501.94
2024-01-24T20:44:23.932Z,97509.19
2024-01-24T20:46:50.847Z,97511.13
2024-01-24T20:49:17.970Z,97506.69
2024-01-24T20:51:47.949Z,97510.13
2024-01-24T20:54:15.177Z,97521.69
2024-01-24T20:56:42.178Z,97513.44
2024-01-24T20:59:09.595Z,97509.69
2024-01-24T21:01:37.364Z,97509.19
2024-01-24T21:04:04.882Z,97508.53
2024-01-24T21:06:32.518Z,97500.84
2024-01-24T21:09:00.067Z,97502.97
2024-01-24T21:11:27.002Z,97494.41
2024-01-24T21:13:53.957Z,97498.69
2024-01-24T21:16:20.894Z,97487.84
2024-01-24T21:18:48.034Z,97482.09
2024-01-24T21:21:15.040Z,97481.94
2024-01-24T21:23:41.950Z,97481.94
2024-01-24T21:26:09.071Z,97481.91
2024-01-24T21:28:35.927Z,97485.03
2024-01-24T21:31:02.945Z,97484.91
2024-01-24T21:33:32.689Z,97486.88
2024-01-24T21:36:00.462Z,97483.94
2024-01-24T21:38:27.557Z,97481.63
2024-01-24T21:40:54.497Z,97470.75
2024-01-24T21:43:21.503Z,97486.38
2024-01-24T21:45:48.926Z,97494.09
2024-01-24T21:48:16.720Z,97491.81
2024-01-24T21:50:44.716Z,97491.16
2024-01-24T21:53:11.671Z,97497.69
2024-01-24T21:55:38.622Z,97497.69
2024-01-24T21:58:05.761Z,97503.28
2024-01-24T22:00:34.089Z,97510.16
2024-01-24T22:03:01.208Z,97508.88
2024-01-24T22:05:28.127Z,97495.22
2024-01-24T22:07:55.124Z,97502.28
2024-01-24T22:10:22.055Z,97492.59
2024-01-24T22:12:50.400Z,97499.34
2024-01-24T22:15:17.840Z,97515.78
2024-01-24T22:17:44.854Z,97499.34
2024-01-24T22:20:12.251Z,97500.00
2024-01-24T22:22:39.362Z,97505.94
2024-01-24T22:25:08.630Z,97518.09
2024-01-24T22:27:35.618Z,97520.38
2024-01-24T22:30:05.777Z,97505.09
2024-01-24T22:32:33.943Z,97507.41
2024-01-24T22:35:06.269Z,97501.19
2024-01-24T22:37:33.648Z,97508.88
2024-01-24T22:40:00.842Z,97509.22
2024-01-24T22:42:27.855Z,97497.72
2024-01-24T22:44:54.787Z,97500.50
2024-01-24T22:47:22.072Z,97503.28
2024-01-24T22:49:49.255Z,97505.94
2024-01-24T22:52:17.020Z,97509.22
2024-01-24T22:54:44.035Z,97502.31
2024-01-24T22:57:11.867Z,97500.03
2024-01-24T22:59:38.866Z,97490.50
2024-01-24T23:02:06.551Z,97496.41
2024-01-24T23:04:33.712Z,97495.59
2024-01-24T23:07:00.811Z,97501.50
2024-01-24T23:09:27.779Z,97503.16
2024-01-24T23:11:54.664Z,97503.66
2024-01-24T23:14:21.650Z,97489.50
2024-01-24T23:16:48.541Z,97507.09
2024-01-24T23:19:15.730Z,97498.38
2024-01-24T23:21:42.918Z,97508.56
2024-01-24T23:24:09.894Z,97491.78
2024-01-24T23:26:37.002Z,97502.00
2024-01-24T23:29:03.995Z,97491.16
2024-01-24T23:31:30.861Z,97499.03
2024-01-24T23:33:57.951Z,97484.91
2024-01-24T23:36:25.666Z,97497.06
2024-01-24T23:38:53.769Z,97492.13
2024-01-24T23:41:21.586Z,97481.81
2024-01-24T23:43:48.502Z,97492.16
2024-01-24T23:46:15.660Z,97486.22
2024-01-24T23:48:43.059Z,97480.59
2024-01-24T23:51:10.495Z,97486.88
2024-01-24T23:53:37.546Z,97476.06
2024-01-24T23:56:04.953Z,97472.09
2024-01-24T23:58:32.186Z,97474.75
